Belgrade, MT

6:28 AM MDT on September 23, 2014 (GMT -0600)
Sheepshank Drive | Change Station
CLOSE
Current Station
Personal Weather Station
Location: W of Belgrade, MT
Elevation: 4420 ft
Nearby Weather Stations

Elev 4420 ft 45.78 °N, 111.24 °W | Updated 9 seconds ago

Clear
Clear
42.3 °F
Feels Like 42 °F
N
2.9
Wind Variable Wind from SE
Gusts 2.9 mph

Today
High -- | Low -- °F
--% Chance of Precip.
Yesterday
High -- | Low -- °F
Precip. -- in
7:12 AM 7:20 PM
Waning Crescent, 1% visible
Pressure 30.04 in
Visibility 10.0 miles
Clouds Clear
Windchill 42 °F
Dew Point 42 °F
Humidity 98%
Rainfall 0.00 in
Snow Depth 0 in , 1 in , 0 in
UV 0 out of 12
Pollen 5.40 out of 12
Air Quality Not available.
Flu Activity Not available.
METAR KBZN 231156Z AUTO 18003KT 10SM CLR 07/06 A3009 RMK AO2 SLP172 T00720056 10117 20056 50001

More Conditions Fewer Conditions

Pressure 30.04 in
Visibility 10.0 miles
Clouds Clear
Windchill 42 °F
Dew Point 42 °F
Humidity 98%
Rainfall 0.00 in
Snow Depth 0 in , 1 in , 0 in
UV 0 out of 12
Pollen 5.40 out of 12
Air Quality Not available.
Flu Activity Not available.
METAR KBZN 231156Z AUTO 18003KT 10SM CLR 07/06 A3009 RMK AO2 SLP172 T00720056 10117 20056 50001

More Conditions Fewer Conditions

10-Day Weather Forecast

Almanac

Astronomy

Sep. 23, 2014 Rise Set
Actual Time 7:12 AM MDT 7:20 PM MDT
Civil Twilight 6:43 AM MDT 7:49 PM MDT
Nautical Twilight 6:08 AM MDT 8:24 PM MDT
Astronomical Twilight 5:32 AM MDT 9:00 PM MDT
Moon 6:40 AM MDT 6:59 PM MDT
Length of Visible Light 13h 06m
Length of Day
12h 07m
Tomorrow will be 3m 12s shorter.
Waning Crescent, 1% of the Moon is Illuminated
Today
Waning Crescent
Sep 24
New
Oct 1
First Quarter
Oct 8
Full
Oct 15
Last Quarter

Today's Extremes

State Highs State Lows

Community

WunderPhotos

Upload Photos

1,755,659 photos uploaded!

WunderBlogs® & News

Nearby

Snow Depth

Station Depth Elevation
Skalkaho Summit 0 in 7250 ft
Wood Creek 1 in 5960 ft
Dupuyer Creek 0 in 5750 ft
West Yellowstone 0 in 6700 ft
Shower Falls 1 in 8100 ft

Earthquake Activity

City Distance Mag. Time & Date
No recent earthquake activity has been reported nearby.
Minimum magnitude displayed is 2.5.

Coastal Water Temperatures

Place Temperature
No Stations Reporting

Nearby Weather Stations